Time;durP1;ratioP1;P1;durP2;ratioP2;P2;SDS_P1;SDS_P2;PMS_P1;PMS_P2;Temp;Humidity;BMP_temperature;BMP_pressure;BME280_temperature;BME280_humidity;BME280_pressure;Samples;Min_cycle;Max_cycle;Signal;HPM_P1;HPM_P2
2021/05/29 00:00:43;;;;;;;;;;;;;;;14.94;56.02;100083.63;4429244;32;34610;-80
2021/05/29 00:03:14;;;;;;;1.00;1.00;;;;;;;14.78;56.23;100076.41;4432516;32;32839;-80
2021/05/29 00:05:43;;;;;;;0.98;0.88;;;;;;;14.80;56.98;100079.75;4421038;32;35026;-80
2021/05/29 00:08:12;;;;;;;0.88;0.88;;;;;;;14.99;56.44;100071.41;4429692;32;34819;-80
2021/05/29 00:10:55;;;;;;;1.17;1.05;;;;;;;15.02;56.50;100067.59;4442914;32;34115;-80
2021/05/29 00:13:24;;;;;;;0.95;0.80;;;;;;;14.93;56.82;100066.72;4439586;32;32724;-80
2021/05/29 00:15:53;;;;;;;0.52;0.50;;;;;;;15.30;55.64;100059.06;4431702;32;35289;-80
2021/05/29 00:18:24;;;;;;;1.27;1.10;;;;;;;14.92;56.10;100070.41;4427746;32;35500;-79
2021/05/29 00:20:53;;;;;;;0.90;0.90;;;;;;;15.05;55.85;100056.53;4420752;32;34157;-80
2021/05/29 00:23:23;;;;;;;2.25;0.82;;;;;;;14.97;56.11;100065.41;4427955;32;33501;-80
2021/05/29 00:25:52;;;;;;;1.05;0.95;;;;;;;14.87;56.67;100059.34;4432182;32;33935;-80
2021/05/29 00:28:19;;;;;;;0.60;0.60;;;;;;;14.80;56.94;100060.16;4427877;32;34428;-81
2021/05/29 00:30:47;;;;;;;3.35;0.90;;;;;;;14.72;57.23;100055.62;4424242;32;34558;-80
2021/05/29 00:33:16;;;;;;;0.93;0.82;;;;;;;14.35;58.70;100053.50;4422822;32;33220;-79
2021/05/29 00:35:45;;;;;;;1.33;1.17;;;;;;;14.70;57.01;100046.94;4424162;32;35306;-79
2021/05/29 00:38:13;;;;;;;1.65;1.12;;;;;;;14.64;57.31;100044.91;4429115;32;35966;-80
2021/05/29 00:40:45;;;;;;;0.93;0.75;;;;;;;14.67;57.97;100051.78;4428560;32;33659;-79
2021/05/29 00:43:14;;;;;;;1.17;1.08;;;;;;;14.87;57.13;100048.62;4443754;32;33263;-79
2021/05/29 00:45:42;;;;;;;1.00;1.00;;;;;;;15.02;56.49;100046.97;4417052;32;33952;-80
2021/05/29 00:48:12;;;;;;;2.45;2.25;;;;;;;14.81;56.99;100043.94;4422577;32;34006;-80
2021/05/29 00:50:48;;;;;;;1.10;0.88;;;;;;;14.94;56.74;100040.78;4430643;32;34216;-80
2021/05/29 00:53:30;;;;;;;0.65;0.65;;;;;;;14.82;56.57;100034.88;4435605;32;34122;-80
2021/05/29 00:56:01;;;;;;;0.82;0.82;;;;;;;14.80;57.21;100038.72;4442566;32;33953;-80
2021/05/29 00:58:35;;;;;;;2.00;0.82;;;;;;;14.74;57.43;100028.69;4422647;32;35535;-80
2021/05/29 01:01:05;;;;;;;0.82;0.75;;;;;;;14.75;57.42;100036.53;4429008;32;33771;-80
2021/05/29 01:03:36;;;;;;;1.70;1.55;;;;;;;14.75;57.51;100043.75;4428809;32;34291;-79
2021/05/29 01:06:05;;;;;;;1.02;0.93;;;;;;;14.89;56.96;100038.59;4430842;32;34619;-80
2021/05/29 01:08:34;;;;;;;1.23;1.12;;;;;;;14.89;56.62;100040.41;4416283;32;37646;-80
2021/05/29 01:11:07;;;;;;;1.55;1.08;;;;;;;14.99;56.66;100041.09;4416879;32;36559;-79
2021/05/29 01:13:37;;;;;;;0.80;0.70;;;;;;;15.14;56.07;100037.59;4428558;32;34613;-80
2021/05/29 01:16:20;;;;;;;9.52;2.22;;;;;;;14.74;57.00;100034.06;4431643;32;33290;-80
2021/05/29 01:18:51;;;;;;;1.77;1.12;;;;;;;15.03;56.62;100029.06;4429809;32;34402;-81
2021/05/29 01:21:20;;;;;;;1.70;1.10;;;;;;;15.08;56.42;100027.56;4430561;32;33926;-80
2021/05/29 01:23:48;;;;;;;4.30;1.00;;;;;;;15.18;56.54;100022.00;4418519;32;33363;-80
2021/05/29 01:26:18;;;;;;;1.60;1.48;;;;;;;15.41;55.73;100023.03;4401349;32;33669;-80
2021/05/29 01:28:53;;;;;;;2.87;1.00;;;;;;;15.50;55.72;100028.22;4418489;32;34594;-79
2021/05/29 01:31:29;;;;;;;0.65;0.65;;;;;;;15.42;55.58;100028.22;4411100;32;36038;-80
2021/05/29 01:33:59;;;;;;;1.90;1.20;;;;;;;15.39;55.63;100030.44;4418216;32;33106;-80
2021/05/29 01:36:28;;;;;;;2.92;2.12;;;;;;;15.60;55.49;100028.03;4425166;32;35557;-80
2021/05/29 01:38:58;;;;;;;1.00;0.90;;;;;;;15.48;56.06;100032.91;4413023;32;34898;-80
2021/05/29 01:41:31;;;;;;;1.05;0.80;;;;;;;15.52;55.91;100028.91;4404099;32;34682;-80
2021/05/29 01:43:59;;;;;;;1.23;1.12;;;;;;;15.59;55.68;100029.06;4424899;32;33496;-80
2021/05/29 01:46:29;;;;;;;1.12;0.90;;;;;;;15.43;55.62;100027.25;4403700;32;35486;-80
2021/05/29 01:49:01;;;;;;;1.23;1.02;;;;;;;15.34;55.85;100024.72;4389786;32;37267;-79
2021/05/29 01:51:34;;;;;;;1.37;1.00;;;;;;;15.38;55.44;100018.00;4412906;32;34001;-80
2021/05/29 01:54:06;;;;;;;1.33;1.00;;;;;;;15.19;56.08;100018.31;4401441;32;34229;-80
2021/05/29 01:56:56;;;;;;;0.82;0.82;;;;;;;15.32;55.72;100026.75;4416881;32;32977;-80
2021/05/29 01:59:27;;;;;;;1.80;0.98;;;;;;;15.34;56.07;100017.53;4424768;32;34528;-79
2021/05/29 02:01:56;;;;;;;2.33;1.70;;;;;;;15.44;55.83;100011.97;4413029;32;34932;-80
2021/05/29 02:04:25;;;;;;;1.00;0.60;;;;;;;15.46;55.63;100012.63;4420090;32;33987;-80
2021/05/29 02:06:53;;;;;;;1.83;1.73;;;;;;;15.26;56.15;100011.28;4404866;32;33935;-80
2021/05/29 02:09:21;;;;;;;1.27;1.02;;;;;;;15.39;56.10;100006.31;4417861;32;35621;-80
2021/05/29 02:11:51;;;;;;;2.25;1.00;;;;;;;15.17;56.75;100006.94;4415643;32;33804;-79
2021/05/29 02:14:27;;;;;;;1.00;0.80;;;;;;;15.45;55.97;100001.09;4421212;32;34108;-79
2021/05/29 02:17:12;;;;;;;0.77;0.70;;;;;;;15.52;55.60;100001.25;4415118;32;34687;-80
2021/05/29 02:19:40;;;;;;;;;;;;;;;15.54;55.05;100000.06;4401865;32;37207;-80
2021/05/29 02:22:17;;;;;;;1.73;0.85;;;;;;;15.63;54.90;99999.03;4418153;32;35221;-78
2021/05/29 02:24:53;;;;;;;2.00;0.98;;;;;;;15.72;54.89;99992.66;4431013;32;34989;-80
2021/05/29 02:27:27;;;;;;;1.23;0.95;;;;;;;15.51;55.14;99999.56;4427690;32;32889;-79
2021/05/29 02:29:55;;;;;;;1.10;0.82;;;;;;;15.61;54.69;99994.84;4434232;32;34230;-79
2021/05/29 02:32:23;;;;;;;2.22;1.65;;;;;;;15.68;54.67;99991.31;4425713;32;33097;-80
2021/05/29 02:34:53;;;;;;;0.90;0.80;;;;;;;15.79;54.24;100001.66;4427082;32;32674;-81
2021/05/29 02:37:28;;;;;;;1.55;1.45;;;;;;;15.59;55.19;100003.06;4432098;32;34149;-80
2021/05/29 02:39:57;;;;;;;1.58;1.02;;;;;;;15.52;55.49;100012.81;4432956;32;35099;-79
2021/05/29 02:42:26;;;;;;;0.80;0.80;;;;;;;15.52;55.74;100002.09;4446931;32;34294;-80
2021/05/29 02:44:54;;;;;;;0.88;0.68;;;;;;;15.39;56.09;100006.31;4447141;32;33983;-80
2021/05/29 02:47:23;;;;;;;1.35;1.23;;;;;;;15.39;56.00;100003.63;4444142;32;33721;-80
2021/05/29 02:49:52;;;;;;;1.48;1.37;;;;;;;15.37;55.52;99995.75;4443455;32;35055;-80
2021/05/29 02:52:20;;;;;;;0.80;0.73;;;;;;;15.49;55.30;99999.72;4428017;32;33608;-80
2021/05/29 02:54:49;;;;;;;0.82;0.82;;;;;;;15.46;55.91;100000.09;4432592;32;33647;-80
2021/05/29 02:57:19;;;;;;;1.45;0.90;;;;;;;15.39;56.30;99985.69;4419434;32;34246;-80
2021/05/29 02:59:47;;;;;;;1.48;1.37;;;;;;;15.50;55.86;99996.03;4432100;32;34842;-80
2021/05/29 03:02:16;;;;;;;1.20;1.10;;;;;;;15.25;57.03;99991.72;4422808;32;35812;-79
2021/05/29 03:04:45;;;;;;;1.17;1.08;;;;;;;15.19;56.80;99997.72;4432005;32;32348;-80
2021/05/29 03:07:13;;;;;;;;;;;;;;;14.68;58.01;99998.06;4433057;32;34462;-80
2021/05/29 03:09:42;;;;;;;0.52;0.52;;;;;;;14.45;58.65;99998.81;4431918;32;35947;-80
2021/05/29 03:12:11;;;;;;;1.62;0.88;;;;;;;14.85;57.39;100010.44;4420191;32;34103;-80
2021/05/29 03:14:44;;;;;;;1.77;1.40;;;;;;;14.91;57.33;100003.56;4432455;32;33715;-79
2021/05/29 03:17:12;;;;;;;1.90;1.48;;;;;;;15.01;57.20;100007.78;4428088;32;33815;-79
2021/05/29 03:19:41;;;;;;;1.65;0.95;;;;;;;15.12;56.79;100002.09;4426633;32;34409;-79
2021/05/29 03:25:05;;;;;;;1.42;1.12;;;;;;;15.37;56.19;99990.38;4433938;32;34489;-79
2021/05/29 03:27:35;;;;;;;1.10;1.00;;;;;;;15.15;56.40;99991.06;4442769;32;33609;-80
2021/05/29 03:30:06;;;;;;;1.95;1.67;;;;;;;15.17;56.44;99997.06;4432501;32;35935;-80
2021/05/29 03:32:36;;;;;;;1.02;1.02;;;;;;;15.08;56.83;100002.59;4443284;32;34834;-81
2021/05/29 03:35:05;;;;;;;3.75;1.17;;;;;;;14.87;57.83;99999.56;4444897;32;33771;-81
2021/05/29 03:37:44;;;;;;;2.08;1.40;;;;;;;15.01;57.49;99999.75;4425201;32;35551;-81
2021/05/29 03:40:31;;;;;;;;;;;;;;;14.95;57.29;99991.53;4424149;32;34582;-79
2021/05/29 03:43:04;;;;;;;1.23;0.88;;;;;;;14.83;57.81;100003.59;4432650;32;33342;-80
2021/05/29 03:45:51;;;;;;;;;;;;;;;15.02;57.91;100005.94;4421566;32;33136;-80
2021/05/29 03:48:28;;;;;;;1.02;0.98;;;;;;;14.89;58.03;100001.09;4432112;32;34554;-80
2021/05/29 03:50:56;;;;;;;0.88;0.82;;;;;;;14.70;58.97;100003.22;4432832;32;34507;-81
2021/05/29 03:53:24;;;;;;;;;;;;;;;14.77;58.84;100006.94;4429042;32;34266;-80
2021/05/29 03:56:11;;;;;;;2.30;2.10;;;;;;;14.71;58.45;100005.75;4440062;32;33508;-80
2021/05/29 03:58:53;;;;;;;1.40;0.68;;;;;;;14.67;58.89;100009.75;4421142;32;33667;-80
2021/05/29 04:01:21;;;;;;;1.05;0.80;;;;;;;14.91;58.33;100009.78;4418219;32;36039;-80
2021/05/29 04:03:50;;;;;;;2.42;1.60;;;;;;;14.86;58.65;100017.47;4428055;32;33731;-80
2021/05/29 04:06:19;;;;;;;2.50;1.58;;;;;;;14.91;58.35;100015.16;4429251;32;33231;-81
2021/05/29 04:09:08;;;;;;;2.80;1.67;;;;;;;15.13;57.76;100010.97;4421525;32;34806;-80
2021/05/29 04:11:36;;;;;;;1.40;1.15;;;;;;;15.16;57.43;100014.16;4431977;32;35446;-80
2021/05/29 04:14:07;;;;;;;1.15;0.98;;;;;;;15.09;58.03;100009.63;4432421;32;34160;-80
2021/05/29 04:16:35;;;;;;;1.00;0.77;;;;;;;15.13;57.39;100014.47;4429338;32;33492;-79
2021/05/29 04:19:09;;;;;;;3.55;1.08;;;;;;;15.18;57.50;100024.69;4426769;32;34313;-79
2021/05/29 04:21:37;;;;;;;1.33;1.10;;;;;;;15.26;57.21;100019.34;4436901;32;34225;-80
2021/05/29 04:24:06;;;;;;;1.02;0.93;;;;;;;15.34;56.74;100017.53;4428899;32;34960;-80
2021/05/29 04:26:43;;;;;;;1.65;0.90;;;;;;;15.20;57.82;100020.03;4431205;32;33306;-80
2021/05/29 04:29:11;;;;;;;1.35;1.25;;;;;;;15.33;57.05;100026.59;4428832;32;34449;-80
2021/05/29 04:31:38;;;;;;;2.35;1.25;;;;;;;15.08;58.54;100027.56;4416710;32;35799;-80
2021/05/29 04:34:11;;;;;;;1.08;0.98;;;;;;;15.44;57.20;100020.03;4428280;32;34126;-79
2021/05/29 04:36:44;;;;;;;1.45;1.33;;;;;;;15.49;56.97;100026.53;4415369;32;33235;-80
2021/05/29 04:39:12;;;;;;;1.00;0.70;;;;;;;15.37;57.59;100021.69;4416365;32;36377;-80
2021/05/29 04:41:40;;;;;;;;;;;;;;;15.12;58.50;100028.06;4435469;32;34907;-80
2021/05/29 04:44:14;;;;;;;1.42;1.33;;;;;;;15.42;57.37;100022.03;4423481;32;33389;-79
2021/05/29 04:46:50;;;;;;;1.62;1.48;;;;;;;15.58;57.10;100032.75;4439091;32;35590;-80
2021/05/29 04:49:22;;;;;;;1.17;1.02;;;;;;;15.40;57.36;100030.25;4419982;32;32955;-80
2021/05/29 04:51:51;;;;;;;0.90;0.90;;;;;;;15.46;57.41;100036.75;4428982;32;34852;-80
2021/05/29 04:54:39;;;;;;;0.95;0.95;;;;;;;15.58;56.91;100022.03;4429334;32;33733;-80
2021/05/29 04:57:07;;;;;;;2.90;0.75;;;;;;;15.17;58.10;100025.69;4433184;32;33129;-79
2021/05/29 04:59:38;;;;;;;1.50;1.40;;;;;;;15.48;57.17;100021.38;4439030;32;33825;-80
2021/05/29 05:02:08;;;;;;;1.15;1.05;;;;;;;15.65;56.78;100020.31;4418457;32;36914;-79
2021/05/29 05:04:42;;;;;;;1.10;1.00;;;;;;;15.92;56.11;100019.91;4414403;32;34599;-81
2021/05/29 05:07:11;;;;;;;1.40;1.25;;;;;;;15.71;57.13;100030.37;4438293;32;32518;-80
2021/05/29 05:09:44;;;;;;;2.10;1.40;;;;;;;15.67;56.69;100034.41;4416675;32;35714;-79
2021/05/29 05:12:16;;;;;;;1.35;1.25;;;;;;;15.51;57.30;100037.09;4422682;32;36006;-79
2021/05/29 05:14:52;;;;;;;1.23;1.15;;;;;;;15.74;56.36;100035.38;4425525;32;33929;-79
2021/05/29 05:17:20;;;;;;;1.48;1.10;;;;;;;15.82;56.20;100024.63;4411689;32;34987;-79
2021/05/29 05:19:57;;;;;;;1.42;1.33;;;;;;;15.73;57.37;100036.38;4428758;32;36337;-79
2021/05/29 05:22:24;;;;;;;1.35;1.25;;;;;;;15.82;56.62;100030.00;4431012;32;35805;-79
2021/05/29 05:24:52;;;;;;;;;;;;;;;15.95;56.15;100033.00;4417420;32;34599;-80
2021/05/29 05:27:31;;;;;;;0.50;0.50;;;;;;;16.21;56.27;100028.19;4409802;32;31978;-80
2021/05/29 05:30:01;;;;;;;1.42;1.10;;;;;;;16.16;55.99;100030.56;4428971;32;36697;-79
2021/05/29 05:32:40;;;;;;;1.25;1.15;;;;;;;15.94;56.24;100033.97;4428075;32;35857;-78
2021/05/29 05:35:17;;;;;;;0.90;0.80;;;;;;;16.09;55.97;100025.06;4428343;32;34409;-79
2021/05/29 05:37:45;;;;;;;2.03;1.05;;;;;;;16.28;56.56;100029.16;4428233;32;32651;-80
2021/05/29 05:40:21;;;;;;;1.85;1.08;;;;;;;16.62;55.31;100032.38;4419150;32;34391;-79
2021/05/29 05:42:49;;;;;;;1.42;1.10;;;;;;;16.62;55.81;100029.69;4406579;32;35897;-79
2021/05/29 05:45:18;;;;;;;;;;;;;;;16.56;55.96;100033.09;4413029;32;33835;-80
2021/05/29 05:47:46;;;;;;;0.98;0.57;;;;;;;16.65;55.12;100024.81;4429719;32;33492;-79
2021/05/29 05:50:15;;;;;;;1.52;1.37;;;;;;;16.19;55.96;100023.00;4427858;32;35608;-79
2021/05/29 05:52:43;;;;;;;1.90;0.80;;;;;;;16.46;55.54;100019.87;4414320;32;34843;-79
2021/05/29 05:55:13;;;;;;;1.02;0.75;;;;;;;16.61;55.74;100019.97;4415132;32;34156;-80
2021/05/29 05:57:42;;;;;;;0.73;0.73;;;;;;;16.96;54.27;100017.53;4415820;32;33522;-79
2021/05/29 06:00:18;;;;;;;4.68;1.87;;;;;;;16.73;54.85;100031.97;4429679;32;34704;-79
2021/05/29 06:02:49;;;;;;;1.10;0.70;;;;;;;16.59;55.35;100030.87;4444548;32;34850;-80
2021/05/29 06:05:19;;;;;;;0.85;0.82;;;;;;;16.78;55.24;100027.75;4417926;32;36114;-79
2021/05/29 06:07:48;;;;;;;0.57;0.57;;;;;;;16.50;55.02;100023.06;4416505;32;33779;-79
2021/05/29 06:10:26;;;;;;;0.55;0.55;;;;;;;16.85;55.10;100023.34;4430537;32;34094;-79
2021/05/29 06:12:56;;;;;;;1.17;1.10;;;;;;;17.06;54.11;100017.31;4437429;32;35814;-79
2021/05/29 06:21:00;;;;;;;1.30;1.20;;;;;;;16.98;54.36;100034.31;4430460;32;33210;-79
2021/05/29 06:23:33;;;;;;;2.45;1.25;;;;;;;17.03;54.87;100034.63;4432957;32;35476;-78
2021/05/29 06:26:22;;;;;;;2.22;0.62;;;;;;;16.92;54.80;100035.06;4438699;32;34635;-78
2021/05/29 06:28:56;;;;;;;1.00;0.90;;;;;;;16.91;54.17;100037.91;4436313;32;33133;-78
2021/05/29 06:31:26;;;;;;;1.00;0.85;;;;;;;17.29;53.52;100034.25;4407875;32;32867;-79
2021/05/29 06:33:55;;;;;;;1.98;1.02;;;;;;;17.40;53.72;100040.06;4432180;32;35785;-78
2021/05/29 06:36:39;;;;;;;0.98;0.60;;;;;;;17.18;53.85;100034.69;4409075;32;36322;-79
2021/05/29 06:39:27;;;;;;;1.23;1.12;;;;;;;17.38;54.01;100035.88;4417129;32;34358;-78
2021/05/29 06:41:56;;;;;;;1.30;0.85;;;;;;;17.20;53.73;100044.25;4420270;32;34766;-79
2021/05/29 06:44:31;;;;;;;1.02;0.80;;;;;;;17.23;53.28;100040.34;4432132;32;35529;-80
2021/05/29 06:47:04;;;;;;;0.73;0.70;;;;;;;17.36;53.16;100040.63;4433004;32;34442;-79
2021/05/29 06:49:37;;;;;;;1.48;0.88;;;;;;;17.23;53.11;100043.03;4431672;32;33872;-81
2021/05/29 06:52:29;;;;;;;22.13;1.98;;;;;;;17.36;53.23;100046.00;4427884;32;34289;-80
2021/05/29 07:01:30;;;;;;;1.55;1.30;;;;;;;17.28;54.74;100048.72;4435921;32;32771;-81
2021/05/29 07:04:00;;;;;;;1.35;1.23;;;;;;;17.10;54.10;100040.97;4430775;32;33460;-81
2021/05/29 07:06:31;;;;;;;1.00;0.90;;;;;;;17.01;55.50;100042.03;4418455;32;34412;-81
2021/05/29 07:09:04;;;;;;;1.10;1.05;;;;;;;17.27;54.29;100039.78;4430667;32;34636;-81
2021/05/29 07:11:36;;;;;;;0.88;0.88;;;;;;;17.42;53.49;100042.56;4421353;32;33210;-80
2021/05/29 07:14:21;;;;;;;1.37;1.27;;;;;;;17.44;52.04;100035.16;4438627;32;33563;-81
2021/05/29 07:16:53;;;;;;;1.35;1.25;;;;;;;17.82;53.14;100040.31;4435868;32;34444;-81
2021/05/29 07:19:27;;;;;;;1.30;1.08;;;;;;;17.88;51.51;100037.72;4431586;32;33902;-80
2021/05/29 07:21:55;;;;;;;2.55;1.45;;;;;;;17.88;52.12;100044.97;4435077;32;34149;-77
2021/05/29 07:24:24;;;;;;;1.10;0.82;;;;;;;18.14;51.94;100039.97;4429522;32;34578;-77
2021/05/29 07:26:53;;;;;;;1.45;1.27;;;;;;;18.18;52.91;100044.78;4430012;32;35426;-77
2021/05/29 07:29:23;;;;;;;1.10;0.93;;;;;;;18.68;51.64;100042.12;4417145;32;35097;-77
2021/05/29 07:31:52;;;;;;;1.23;1.05;;;;;;;18.50;49.97;100047.09;4430043;32;32512;-80
2021/05/29 07:34:24;;;;;;;2.05;1.27;;;;;;;18.67;50.51;100048.56;4428879;32;33714;-80
2021/05/29 07:36:57;;;;;;;1.58;1.23;;;;;;;18.85;50.16;100051.66;4443700;32;35388;-81
2021/05/29 07:39:29;;;;;;;1.65;1.20;;;;;;;18.90;50.09;100043.00;4432717;32;34104;-81
2021/05/29 07:42:00;;;;;;;0.90;0.90;;;;;;;18.91;51.17;100036.59;4431459;32;32698;-81
2021/05/29 07:44:44;;;;;;;1.60;1.02;;;;;;;19.14;51.92;100040.75;4420754;32;32532;-80
2021/05/29 07:47:20;;;;;;;0.73;0.73;;;;;;;19.44;50.15;100041.50;4429939;32;34439;-80
2021/05/29 07:49:48;;;;;;;1.40;1.23;;;;;;;19.90;50.30;100038.09;4428695;32;34089;-79
2021/05/29 07:52:16;;;;;;;1.10;0.90;;;;;;;19.85;48.33;100039.72;4429278;32;33128;-79
2021/05/29 07:54:46;;;;;;;1.85;1.37;;;;;;;20.00;48.12;100032.34;4429382;32;33286;-81
2021/05/29 07:57:14;;;;;;;1.20;0.77;;;;;;;20.47;47.30;100027.03;4419241;32;34291;-79
2021/05/29 08:00:10;;;;;;;1.73;0.98;;;;;;;20.20;47.34;100019.81;4408368;32;33834;-79
2021/05/29 08:02:40;;;;;;;1.20;1.10;;;;;;;19.94;47.83;100025.03;4441136;32;33156;-79
2021/05/29 08:05:19;;;;;;;1.27;1.17;;;;;;;20.41;48.02;100017.00;4417093;32;33660;-79
2021/05/29 08:07:56;;;;;;;1.12;1.12;;;;;;;20.68;46.57;100014.22;4442341;32;34907;-79
2021/05/29 08:10:26;;;;;;;1.37;0.90;;;;;;;20.33;47.30;100027.97;4443903;32;33712;-79
2021/05/29 08:13:00;;;;;;;1.00;0.98;;;;;;;19.98;46.05;100024.44;4427476;32;31949;-79
2021/05/29 08:15:31;;;;;;;0.85;0.82;;;;;;;20.23;47.11;100027.53;4428614;32;33275;-79
2021/05/29 08:18:10;;;;;;;2.12;0.73;;;;;;;20.50;46.04;100029.31;4418349;32;35568;-80
2021/05/29 08:20:53;;;;;;;0.30;0.30;;;;;;;20.44;46.71;100025.56;4423422;32;35336;-80
2021/05/29 08:23:27;;;;;;;1.42;0.90;;;;;;;20.41;45.27;100030.53;4440992;32;33695;-79
2021/05/29 08:26:00;;;;;;;0.40;0.30;;;;;;;20.47;43.61;100032.44;4445283;32;34233;-79
2021/05/29 08:28:31;;;;;;;1.30;0.55;;;;;;;20.38;44.02;100022.81;4419772;32;33977;-79
2021/05/29 08:31:38;;;;;;;0.37;0.37;;;;;;;20.10;45.19;100025.56;4430434;32;34495;-79
2021/05/29 08:34:12;;;;;;;0.82;0.47;;;;;;;20.07;43.88;100023.28;4422001;32;32072;-80
2021/05/29 08:36:48;;;;;;;0.98;0.40;;;;;;;20.11;43.17;100035.34;4416231;32;33395;-79
2021/05/29 08:39:26;;;;;;;0.70;0.70;;;;;;;19.90;44.57;100032.69;4428778;32;36651;-80
2021/05/29 08:41:58;;;;;;;1.10;0.85;;;;;;;19.72;45.15;100032.38;4430594;32;33719;-79
2021/05/29 08:44:29;;;;;;;0.68;0.68;;;;;;;19.92;45.86;100035.22;4427982;32;32464;-79
2021/05/29 08:47:23;;;;;;;0.80;0.80;;;;;;;20.06;44.45;100034.28;4425636;32;33773;-79
2021/05/29 08:50:07;;;;;;;0.50;0.50;;;;;;;20.16;45.47;100037.44;4426893;32;36052;-80
2021/05/29 08:52:43;;;;;;;2.15;1.10;;;;;;;19.94;44.92;100038.53;4431355;32;35287;-80
2021/05/29 08:55:20;;;;;;;0.60;0.52;;;;;;;20.23;44.76;100025.66;4417404;32;32677;-80
2021/05/29 08:57:55;;;;;;;1.75;0.85;;;;;;;20.34;43.75;100024.25;4438474;32;33822;-81
2021/05/29 09:00:30;;;;;;;0.40;0.40;;;;;;;20.49;45.40;100025.75;4420258;32;36197;-80
2021/05/29 09:03:14;;;;;;;0.80;0.80;;;;;;;20.48;44.45;100013.28;4438985;32;34086;-80
2021/05/29 09:06:06;;;;;;;0.75;0.60;;;;;;;20.83;43.54;100013.00;4418748;32;33209;-81
2021/05/29 09:08:52;;;;;;;0.95;0.60;;;;;;;20.38;43.50;100014.72;4427460;32;33044;-81
2021/05/29 09:11:49;;;;;;;0.67;0.40;;;;;;;20.64;44.32;100021.03;4426902;32;34513;-78
2021/05/29 09:14:27;;;;;;;1.15;1.05;;;;;;;20.52;43.98;100017.28;4417907;32;34073;-79
2021/05/29 09:17:08;;;;;;;0.15;0.15;;;;;;;21.04;44.24;100017.44;4429517;32;33659;-77
2021/05/29 09:19:55;;;;;;;0.60;0.60;;;;;;;21.46;42.35;100011.66;4430073;32;33986;-80
2021/05/29 09:23:01;;;;;;;0.32;0.32;;;;;;;21.16;42.42;99999.56;4437677;32;35174;-81
2021/05/29 09:25:33;;;;;;;0.55;0.30;;;;;;;20.83;42.95;100017.56;4432168;32;33948;-79
2021/05/29 09:28:07;;;;;;;1.77;1.20;;;;;;;20.52;43.94;100020.78;4406736;32;33383;-78
2021/05/29 09:30:35;;;;;;;0.95;0.40;;;;;;;21.20;43.20;100015.19;4424844;32;33853;-79
2021/05/29 09:33:20;;;;;;;0.73;0.73;;;;;;;20.99;41.58;100018.03;4426943;32;33989;-80
2021/05/29 09:36:01;;;;;;;1.40;1.40;;;;;;;20.81;43.25;100027.75;4443807;32;35566;-80
2021/05/29 09:38:54;;;;;;;0.65;0.65;;;;;;;20.43;44.22;100017.63;4415200;32;32899;-79
2021/05/29 09:41:30;;;;;;;8.38;0.88;;;;;;;20.25;44.55;100025.44;4429795;32;34385;-82
2021/05/29 09:44:09;;;;;;;1.12;0.75;;;;;;;20.14;44.79;100023.31;4430962;32;35495;-80
2021/05/29 09:47:05;;;;;;;0.40;0.40;;;;;;;20.89;43.80;100024.91;4434275;32;34084;-81
2021/05/29 09:49:55;;;;;;;0.40;0.40;;;;;;;21.04;43.91;100012.88;4419529;32;33099;-79
2021/05/29 09:52:34;;;;;;;0.95;0.55;;;;;;;20.61;43.41;100016.87;4446333;26;33875;-80
2021/05/29 09:55:06;;;;;;;1.23;0.50;;;;;;;20.72;44.42;100028.97;4405877;32;35735;-81
2021/05/29 09:57:53;;;;;;;1.30;1.05;;;;;;;20.37;43.60;100021.16;4376475;32;33729;-78
2021/05/29 10:00:20;;;;;;;0.85;0.85;;;;;;;20.63;44.74;100006.72;4408158;32;34332;-81
2021/05/29 10:03:04;;;;;;;1.60;1.33;;;;;;;20.68;44.05;100019.63;4403727;32;34590;-79
2021/05/29 10:05:34;;;;;;;0.68;0.50;;;;;;;20.85;44.92;100010.94;4404332;32;35261;-79
2021/05/29 10:08:03;;;;;;;0.60;0.30;;;;;;;20.86;40.11;100014.47;4390817;32;33621;-78
2021/05/29 10:10:34;;;;;;;0.80;0.80;;;;;;;20.76;42.59;100017.56;4405228;32;33965;-81
2021/05/29 10:13:02;;;;;;;0.98;0.90;;;;;;;20.97;40.50;100003.91;4400103;32;33781;-82
2021/05/29 10:15:30;;;;;;;0.88;0.50;;;;;;;20.85;41.06;100002.84;4389960;32;35571;-82
2021/05/29 10:18:03;;;;;;;0.32;0.32;;;;;;;21.10;40.60;100001.22;4410062;32;34153;-81
2021/05/29 10:20:35;;;;;;;1.12;0.22;;;;;;;21.24;42.09;99993.97;4408584;32;33088;-79
2021/05/29 10:23:05;;;;;;;0.20;0.20;;;;;;;21.18;38.96;100001.00;4382795;32;34497;-79
2021/05/29 10:25:34;;;;;;;1.48;0.85;;;;;;;21.09;40.09;99994.13;4401425;32;34497;-77
2021/05/29 10:28:02;;;;;;;1.42;0.30;;;;;;;21.19;39.92;99994.56;4403557;32;33723;-79
2021/05/29 10:30:32;;;;;;;3.33;0.32;;;;;;;21.37;39.19;99996.66;4393950;32;33868;-81
2021/05/29 10:33:12;;;;;;;0.60;0.60;;;;;;;21.80;40.19;100009.56;4403069;32;33609;-83
2021/05/29 10:35:42;;;;;;;3.47;0.80;;;;;;;22.53;39.76;100008.31;4404383;32;34834;-79
2021/05/29 10:38:12;;;;;;;1.33;1.20;;;;;;;22.18;38.26;100002.38;4403252;32;34076;-79
2021/05/29 10:40:42;;;;;;;0.85;0.85;;;;;;;22.00;38.51;100015.75;4403139;32;32662;-84
2021/05/29 10:43:21;;;;;;;1.10;1.00;;;;;;;22.07;38.62;100008.47;4405323;32;34313;-78
2021/05/29 10:45:51;;;;;;;0.90;0.60;;;;;;;22.09;39.09;100006.37;4394051;32;35237;-81
2021/05/29 10:48:20;;;;;;;0.77;0.40;;;;;;;22.28;37.26;100008.19;4401851;32;33031;-82
2021/05/29 10:53:47;;;;;;;0.60;0.30;;;;;;;22.71;36.11;100000.31;4400380;32;32797;-87
2021/05/29 10:56:24;;;;;;;0.82;0.62;;;;;;;22.42;37.72;100001.72;4413356;32;35384;-82
2021/05/29 10:59:12;;;;;;;0.52;0.52;;;;;;;22.71;37.15;99997.59;4404998;32;34114;-80
2021/05/29 11:01:50;;;;;;;1.17;0.70;;;;;;;22.84;37.60;100000.25;4403293;32;33455;-82
2021/05/29 11:04:19;;;;;;;1.40;0.37;;;;;;;23.08;33.71;99994.88;4402891;32;34791;-83
2021/05/29 11:06:53;;;;;;;0.45;0.45;;;;;;;22.94;36.62;100001.41;4408026;32;35443;-79
2021/05/29 11:09:26;;;;;;;1.40;1.05;;;;;;;23.48;36.09;100000.84;4407798;32;35118;-81
2021/05/29 11:11:58;;;;;;;1.27;1.00;;;;;;;23.80;36.67;100001.38;4410222;32;33032;-81
2021/05/29 11:14:34;;;;;;;0.52;0.50;;;;;;;23.45;34.30;99988.56;4391120;32;33307;-83
2021/05/29 11:17:09;;;;;;;1.85;0.93;;;;;;;23.55;35.67;99990.75;4403293;32;35259;-80
2021/05/29 11:19:39;;;;;;;2.30;0.35;;;;;;;23.51;35.77;99993.06;4407009;32;34840;-82
2021/05/29 11:22:22;;;;;;;1.40;0.60;;;;;;;23.07;35.82;99985.06;4406359;32;32752;-80
2021/05/29 11:24:52;;;;;;;0.17;0.17;;;;;;;22.95;35.80;99989.50;4389688;32;33791;-82
2021/05/29 11:27:27;;;;;;;0.52;0.37;;;;;;;23.76;35.37;99993.06;4405642;32;34544;-86
2021/05/29 11:29:56;;;;;;;0.43;0.43;;;;;;;23.63;33.20;99985.03;4407569;32;35375;-84
2021/05/29 11:36:07;;;;;;;0.32;0.32;;;;;;;23.95;33.12;99971.16;4405102;32;33828;-86
2021/05/29 11:49:29;;;;;;;0.37;0.37;;;;;;;23.40;35.20;99966.66;4360205;32;33513;-90
2021/05/29 12:23:00;;;;;;;4.62;0.22;;;;;;;24.43;30.74;99951.12;4389596;32;33672;-88
2021/05/29 12:27:05;;;;;;;0.35;0.35;;;;;;;24.44;32.73;99939.19;4382562;32;33466;-88
2021/05/29 12:29:59;;;;;;;;;;;;;;;;;;;;;
2021/05/29 12:33:37;;;;;;;0.37;0.32;;;;;;;23.65;31.03;99955.75;4354415;32;33685;-90
2021/05/29 12:40:11;;;;;;;1.00;0.68;;;;;;;24.33;32.14;99950.00;4303396;33;32772;-90
2021/05/29 12:43:26;;;;;;;0.57;0.57;;;;;;;23.66;32.33;99947.37;4315606;33;33482;-85
2021/05/29 12:56:34;;;;;;;0.22;0.15;;;;;;;23.61;30.46;99949.97;4257948;33;33851;-87
2021/05/29 13:35:58;;;;;;;0.52;0.45;;;;;;;23.65;27.78;99907.72;4271303;33;34965;-91
2021/05/29 13:47:11;;;;;;;0.20;0.10;;;;;;;24.26;28.43;99914.72;4228984;33;34281;-89
2021/05/29 13:53:31;;;;;;;0.20;0.20;;;;;;;24.49;25.20;99912.13;4237122;33;33739;-87
2021/05/29 14:02:28;;;;;;;0.50;0.50;;;;;;;25.00;26.83;99917.00;4254342;33;33481;-85
2021/05/29 14:12:35;;;;;;;0.60;0.35;;;;;;;25.50;28.23;99905.50;4323197;33;33752;-89
2021/05/29 14:15:38;;;;;;;0.50;0.50;;;;;;;25.70;28.37;99905.97;4357197;32;34283;-91
2021/05/29 14:35:31;;;;;;;5.28;1.33;;;;;;;25.97;29.95;99925.37;4343661;32;33584;-86
2021/05/29 14:38:55;;;;;;;0.35;0.30;;;;;;;25.33;27.62;99928.22;4359317;32;33140;-92
2021/05/29 15:01:46;;;;;;;1.12;1.05;;;;;;;24.05;29.64;99950.56;4360527;32;35115;-86